TimeCST,TemperatureF,Dew PointF,Humidity,Sea Level PressureIn,VisibilityMPH,Wind Direction,Wind SpeedMPH,Gust SpeedMPH,PrecipitationIn,Events,Conditions,WindDirDegrees,DateUTC
12:15 AM,27.7,20.7,75,30.26,10.0,WNW,9.2,-,N/A,,Scattered Clouds,290,2013-01-06 06:15:00
12:35 AM,24.8,19.0,79,30.27,10.0,West,9.2,-,N/A,,Scattered Clouds,280,2013-01-06 06:35:00
12:55 AM,24.4,18.7,79,30.26,10.0,WNW,6.9,-,N/A,,Scattered Clouds,290,2013-01-06 06:55:00
1:15 AM,23.9,18.1,79,30.25,10.0,WNW,8.1,-,N/A,,Scattered Clouds,290,2013-01-06 07:15:00
1:35 AM,23.9,18.3,79,30.26,10.0,West,6.9,-,N/A,,Scattered Clouds,280,2013-01-06 07:35:00
1:55 AM,23.5,18.0,79,30.25,10.0,West,10.4,-,N/A,,Scattered Clouds,280,2013-01-06 07:55:00
2:15 AM,23.7,17.8,78,30.25,10.0,WNW,9.2,-,N/A,,Scattered Clouds,290,2013-01-06 08:15:00
2:35 AM,23.0,17.1,78,30.25,10.0,WNW,4.6,-,N/A,,Scattered Clouds,290,2013-01-06 08:35:00
2:55 AM,22.1,17.1,81,30.25,10.0,WNW,8.1,-,N/A,,Scattered Clouds,290,2013-01-06 08:55:00
3:15 AM,21.7,16.7,81,30.26,10.0,WNW,8.1,-,N/A,,Scattered Clouds,290,2013-01-06 09:15:00
3:35 AM,21.9,15.8,77,30.26,10.0,West,8.1,-,N/A,,Scattered Clouds,280,2013-01-06 09:35:00
3:55 AM,23.7,17.4,77,30.25,10.0,West,5.8,-,N/A,,Scattered Clouds,280,2013-01-06 09:55:00
4:15 AM,23.5,16.9,76,30.25,10.0,West,8.1,-,N/A,,Scattered Clouds,280,2013-01-06 10:15:00
4:35 AM,19.8,13.8,78,30.25,10.0,West,6.9,-,N/A,,Scattered Clouds,280,2013-01-06 10:35:00
4:55 AM,22.3,15.6,76,30.26,10.0,West,9.2,-,N/A,,Scattered Clouds,260,2013-01-06 10:55:00
5:15 AM,20.5,14.9,79,30.26,10.0,West,8.1,-,N/A,,Scattered Clouds,260,2013-01-06 11:15:00
5:35 AM,20.3,15.3,81,30.26,10.0,West,9.2,-,N/A,,Clear,270,2013-01-06 11:35:00
5:55 AM,19.9,14.9,81,30.26,10.0,West,10.4,-,N/A,,Clear,270,2013-01-06 11:55:00
6:15 AM,19.8,14.5,80,30.27,10.0,West,9.2,-,N/A,,Clear,270,2013-01-06 12:15:00
6:35 AM,18.7,13.5,80,30.27,10.0,WNW,8.1,-,N/A,,Clear,290,2013-01-06 12:35:00
6:55 AM,19.9,14.7,80,30.27,10.0,WNW,8.1,-,N/A,,Clear,290,2013-01-06 12:55:00
7:15 AM,18.9,13.8,81,30.27,10.0,West,9.2,-,N/A,,Clear,280,2013-01-06 13:15:00
7:35 AM,18.3,12.6,78,30.28,10.0,West,9.2,-,N/A,,Clear,260,2013-01-06 13:35:00
7:55 AM,18.3,13.1,80,30.28,10.0,West,9.2,-,N/A,,Clear,270,2013-01-06 13:55:00
8:15 AM,18.3,13.3,81,30.28,10.0,West,5.8,-,N/A,,Clear,260,2013-01-06 14:15:00
8:35 AM,18.1,12.9,80,30.29,10.0,West,6.9,-,N/A,,Clear,260,2013-01-06 14:35:00
8:55 AM,19.0,13.5,79,30.29,10.0,West,6.9,-,N/A,,Clear,260,2013-01-06 14:55:00
9:15 AM,19.4,13.3,77,30.29,10.0,West,6.9,-,N/A,,Clear,270,2013-01-06 15:15:00
9:35 AM,20.3,13.8,76,30.29,10.0,West,5.8,-,N/A,,Clear,260,2013-01-06 15:35:00
9:55 AM,22.3,14.7,73,30.29,10.0,West,6.9,-,N/A,,Clear,270,2013-01-06 15:55:00
10:15 AM,24.6,15.8,69,30.29,10.0,WSW,4.6,-,N/A,,Clear,250,2013-01-06 16:15:00
10:35 AM,25.9,16.5,68,30.29,10.0,SSW,4.6,-,N/A,,Clear,210,2013-01-06 16:35:00
10:55 AM,27.0,16.9,66,30.29,10.0,SSW,3.5,-,N/A,,Clear,200,2013-01-06 16:55:00
11:15 AM,27.7,17.4,65,30.28,10.0,SSW,4.6,-,N/A,,Clear,200,2013-01-06 17:15:00
11:35 AM,28.6,18.5,66,30.27,10.0,SW,3.5,-,N/A,,Clear,230,2013-01-06 17:35:00
11:55 AM,28.9,17.8,63,30.26,10.0,SW,6.9,-,N/A,,Clear,220,2013-01-06 17:55:00
12:15 PM,28.2,18.5,67,30.24,10.0,SW,9.2,-,N/A,,Clear,220,2013-01-06 18:15:00
12:35 PM,28.2,18.7,67,30.23,10.0,SW,5.8,-,N/A,,Clear,220,2013-01-06 18:35:00
12:55 PM,29.3,18.5,64,30.21,10.0,SW,6.9,-,N/A,,Clear,220,2013-01-06 18:55:00
1:15 PM,30.4,19.2,63,30.21,10.0,SSW,6.9,-,N/A,,Clear,210,2013-01-06 19:15:00
1:35 PM,30.7,19.6,63,30.20,10.0,SW,6.9,-,N/A,,Clear,230,2013-01-06 19:35:00
1:55 PM,32.0,19.0,59,30.19,10.0,SSW,6.9,-,N/A,,Clear,210,2013-01-06 19:55:00
2:15 PM,32.4,19.9,60,30.18,10.0,SW,8.1,-,N/A,,Clear,220,2013-01-06 20:15:00
2:35 PM,32.5,19.9,60,30.18,10.0,SW,6.9,-,N/A,,Clear,220,2013-01-06 20:35:00
2:55 PM,32.2,21.2,64,30.17,10.0,South,6.9,-,N/A,,Clear,190,2013-01-06 20:55:00
3:15 PM,32.4,20.3,61,30.17,10.0,South,5.8,-,N/A,,Clear,170,2013-01-06 21:15:00
3:35 PM,32.0,20.3,62,30.16,10.0,South,6.9,-,N/A,,Clear,170,2013-01-06 21:35:00
3:55 PM,31.6,20.5,63,30.15,10.0,SSE,4.6,-,N/A,,Clear,160,2013-01-06 21:55:00
4:15 PM,30.9,20.3,65,30.15,10.0,South,9.2,-,N/A,,Clear,170,2013-01-06 22:15:00
4:35 PM,30.6,20.3,66,30.14,10.0,SSE,8.1,-,N/A,,Clear,150,2013-01-06 22:35:00
4:55 PM,28.6,20.1,71,30.13,10.0,SSE,10.4,-,N/A,,Clear,150,2013-01-06 22:55:00
5:15 PM,27.3,19.4,72,30.12,10.0,SSE,10.4,-,N/A,,Clear,150,2013-01-06 23:15:00
5:35 PM,26.6,18.9,73,30.12,10.0,SSE,9.2,-,N/A,,Clear,150,2013-01-06 23:35:00
5:55 PM,24.6,18.7,78,30.11,10.0,SSE,9.2,-,N/A,,Clear,150,2013-01-06 23:55:00
6:15 PM,25.0,18.9,78,30.10,10.0,SSE,9.2,-,N/A,,Clear,160,2013-01-07 00:15:00
6:35 PM,27.1,20.3,75,30.10,10.0,South,15.0,-,N/A,,Clear,170,2013-01-07 00:35:00
6:55 PM,27.9,20.7,74,30.09,10.0,South,13.8,-,N/A,,Clear,170,2013-01-07 00:55:00
7:15 PM,27.1,20.5,76,30.09,10.0,South,11.5,-,N/A,,Clear,170,2013-01-07 01:15:00
7:35 PM,27.1,20.8,77,30.08,10.0,South,15.0,-,N/A,,Clear,170,2013-01-07 01:35:00
7:55 PM,28.8,22.1,76,30.07,10.0,South,15.0,-,N/A,,Clear,170,2013-01-07 01:55:00
8:15 PM,29.3,22.3,75,30.06,10.0,South,18.4,-,N/A,,Clear,170,2013-01-07 02:15:00
8:35 PM,28.2,22.1,78,30.07,10.0,South,10.4,-,N/A,,Clear,170,2013-01-07 02:35:00
8:55 PM,27.5,22.3,81,30.06,10.0,South,13.8,-,N/A,,Clear,170,2013-01-07 02:55:00
9:15 PM,28.2,22.6,80,30.06,10.0,South,15.0,18.4,N/A,,Clear,180,2013-01-07 03:15:00
9:55 PM,27.7,22.6,81,30.05,10.0,South,12.7,-,N/A,,Clear,170,2013-01-07 03:55:00
10:15 PM,27.0,21.9,81,30.04,10.0,South,10.4,-,N/A,,Clear,170,2013-01-07 04:15:00
10:35 PM,26.1,21.9,84,30.04,10.0,South,9.2,-,N/A,,Clear,180,2013-01-07 04:35:00
10:55 PM,27.7,23.4,84,30.02,10.0,South,9.2,-,N/A,,Clear,180,2013-01-07 04:55:00
11:35 PM,28.4,23.2,81,30.00,10.0,South,15.0,19.6,N/A,,Clear,180,2013-01-07 05:35:00
11:55 PM,28.8,23.0,79,29.99,10.0,South,16.1,21.9,N/A,,Clear,190,2013-01-07 05:55:00